Time;durP1;ratioP1;P1;durP2;ratioP2;P2;SDS_P1;SDS_P2;PMS_P1;PMS_P2;Temp;Humidity;BMP_temperature;BMP_pressure;BME280_temperature;BME280_humidity;BME280_pressure;Samples;Min_cycle;Max_cycle;Signal;HPM_P1;HPM_P2
2021/09/02 00:00:59;;;;;;;2.25;1.23;;;;;;;11.99;100.00;102090.00;4963258;28;20055;-84
2021/09/02 00:03:28;;;;;;;2.90;1.10;;;;;;;12.06;100.00;102096.09;4969480;28;20474;-85
2021/09/02 00:05:57;;;;;;;2.50;1.00;;;;;;;12.12;100.00;102100.50;4965868;28;20059;-85
2021/09/02 00:08:25;;;;;;;1.92;1.10;;;;;;;12.08;100.00;102091.19;4963545;28;20050;-84
2021/09/02 00:10:58;;;;;;;2.83;1.10;;;;;;;12.08;100.00;102102.94;4970014;28;20395;-84
2021/09/02 00:13:26;;;;;;;3.15;1.10;;;;;;;12.06;100.00;102105.09;4979940;28;20414;-83
2021/09/02 00:15:55;;;;;;;2.35;1.10;;;;;;;12.02;100.00;102101.22;4972267;28;20450;-84
2021/09/02 00:18:30;;;;;;;2.17;1.10;;;;;;;12.01;100.00;102105.03;4969585;28;20682;-84
2021/09/02 00:21:08;;;;;;;2.03;1.08;;;;;;;12.04;100.00;102095.50;4967739;28;20051;-84
2021/09/02 00:23:41;;;;;;;3.50;1.17;;;;;;;12.01;100.00;102105.03;4970424;28;20050;-85
2021/09/02 00:26:09;;;;;;;1.95;1.13;;;;;;;11.91;100.00;102110.34;4968368;28;20047;-85
2021/09/02 00:28:43;;;;;;;3.20;1.20;;;;;;;11.91;100.00;102105.69;4964485;28;20050;-87
2021/09/02 00:31:16;;;;;;;2.47;1.10;;;;;;;11.93;100.00;102105.44;4969566;28;20050;-86
2021/09/02 00:33:50;;;;;;;1.58;1.08;;;;;;;11.94;100.00;102104.41;4968096;28;20054;-86
2021/09/02 00:36:24;;;;;;;3.45;1.10;;;;;;;11.93;100.00;102099.16;4963584;28;20047;-86
2021/09/02 00:38:52;;;;;;;2.35;1.00;;;;;;;11.95;100.00;102097.88;4970308;28;20101;-86
2021/09/02 00:41:26;;;;;;;2.58;1.00;;;;;;;11.85;100.00;102081.34;4983311;28;20051;-87
2021/09/02 00:43:59;;;;;;;2.30;1.00;;;;;;;11.83;100.00;102084.31;4965822;28;20042;-85
2021/09/02 00:46:32;;;;;;;2.67;1.20;;;;;;;11.75;100.00;102090.22;4971519;28;20062;-85
2021/09/02 00:49:07;;;;;;;2.08;1.20;;;;;;;11.84;100.00;102096.06;4958608;28;20051;-86
2021/09/02 00:51:40;;;;;;;3.83;1.10;;;;;;;11.73;100.00;102090.47;4967212;28;20499;-88
2021/09/02 00:54:08;;;;;;;2.63;1.00;;;;;;;11.81;100.00;102091.13;4970296;28;20065;-86
2021/09/02 00:56:36;;;;;;;3.20;1.30;;;;;;;11.82;100.00;102081.84;4967682;28;20050;-86
2021/09/02 00:59:04;;;;;;;2.40;1.17;;;;;;;11.71;100.00;102079.00;4967553;28;20058;-85
2021/09/02 01:01:38;;;;;;;3.15;1.30;;;;;;;11.77;100.00;102077.16;4962069;28;20050;-85
2021/09/02 01:04:12;;;;;;;3.28;1.40;;;;;;;11.70;100.00;102081.97;4963669;28;20066;-87
2021/09/02 01:06:41;;;;;;;2.25;1.25;;;;;;;11.67;100.00;102077.84;4967785;28;20058;-86
2021/09/02 01:09:15;;;;;;;2.10;1.10;;;;;;;11.74;100.00;102074.94;4964700;28;20062;-85
2021/09/02 01:11:48;;;;;;;3.40;1.20;;;;;;;11.75;100.00;102071.13;4967197;28;20046;-86
2021/09/02 01:14:22;;;;;;;2.42;1.30;;;;;;;11.73;100.00;102074.09;4968986;28;20074;-86
2021/09/02 01:16:56;;;;;;;3.10;1.50;;;;;;;11.68;100.00;102079.50;4966433;28;20039;-86
2021/09/02 01:19:25;;;;;;;4.13;1.30;;;;;;;11.64;100.00;102080.25;4966958;28;20059;-86
2021/09/02 01:21:54;;;;;;;4.43;1.50;;;;;;;11.57;100.00;102059.47;4966666;28;20055;-86
2021/09/02 01:24:28;;;;;;;2.47;1.40;;;;;;;11.50;100.00;102064.28;4971892;28;20712;-86
2021/09/02 01:27:01;;;;;;;1.85;1.20;;;;;;;11.69;100.00;102080.31;4961723;28;20136;-86
2021/09/02 01:29:35;;;;;;;2.00;1.23;;;;;;;11.68;100.00;102082.25;4965327;28;20043;-85
2021/09/02 01:32:06;;;;;;;2.83;1.45;;;;;;;11.70;100.00;102080.06;4971369;28;20047;-85
2021/09/02 01:34:35;;;;;;;2.80;1.30;;;;;;;11.72;100.00;102086.13;4962450;28;20054;-85
2021/09/02 01:37:03;;;;;;;3.85;1.38;;;;;;;11.67;100.00;102087.91;4958923;28;20059;-84
2021/09/02 01:39:33;;;;;;;1.77;1.17;;;;;;;11.63;100.00;102076.72;4964331;28;20063;-86
2021/09/02 01:42:01;;;;;;;2.67;1.45;;;;;;;11.56;100.00;102067.91;4966159;28;20055;-86
2021/09/02 01:44:29;;;;;;;2.97;1.40;;;;;;;11.51;100.00;102078.72;4963238;28;20050;-85
2021/09/02 01:46:57;;;;;;;2.50;1.40;;;;;;;11.51;100.00;102076.81;4968649;28;20039;-86
2021/09/02 01:49:29;;;;;;;3.60;1.77;;;;;;;11.53;100.00;102077.41;4962829;28;20054;-86
2021/09/02 01:52:03;;;;;;;2.30;1.40;;;;;;;11.47;100.00;102077.56;4970891;28;20050;-86
2021/09/02 01:54:38;;;;;;;2.80;1.50;;;;;;;11.57;100.00;102080.44;4971915;28;20070;-86
2021/09/02 01:57:06;;;;;;;3.17;1.60;;;;;;;11.58;100.00;102076.63;4961853;28;20058;-86
2021/09/02 01:59:40;;;;;;;3.60;1.77;;;;;;;11.67;100.00;102088.75;4972871;28;20046;-87
2021/09/02 02:02:09;;;;;;;2.05;1.40;;;;;;;11.76;100.00;102085.59;4970027;28;20067;-86
2021/09/02 02:04:42;;;;;;;3.70;1.70;;;;;;;11.83;100.00;102086.22;4966193;28;20054;-86
2021/09/02 02:07:15;;;;;;;3.63;1.63;;;;;;;11.85;100.00;102076.72;4965990;28;20051;-86
2021/09/02 02:09:45;;;;;;;2.33;1.42;;;;;;;11.78;100.00;102073.38;4967871;28;20065;-87
2021/09/02 02:12:13;;;;;;;2.40;1.50;;;;;;;11.89;100.00;102075.13;4967518;28;20057;-85
2021/09/02 02:14:47;;;;;;;2.90;1.60;;;;;;;11.88;100.00;102083.56;4966943;28;20054;-86
2021/09/02 02:17:15;;;;;;;3.40;1.73;;;;;;;11.93;100.00;102080.88;4972369;28;20051;-86
2021/09/02 02:19:48;;;;;;;3.67;1.80;;;;;;;11.90;100.00;102074.06;4972541;28;20062;-86
2021/09/02 02:22:21;;;;;;;2.50;1.50;;;;;;;11.91;100.00;102063.97;4972845;28;20055;-86
2021/09/02 02:24:51;;;;;;;3.13;1.85;;;;;;;11.93;100.00;102075.44;4966345;28;20051;-86
2021/09/02 02:27:19;;;;;;;2.42;1.70;;;;;;;12.01;100.00;102075.00;4971707;28;20054;-86
2021/09/02 02:29:53;;;;;;;3.85;2.08;;;;;;;11.99;100.00;102065.47;4969985;28;20063;-86
2021/09/02 02:32:21;;;;;;;5.15;2.00;;;;;;;12.00;100.00;102094.38;4968070;28;20051;-86
2021/09/02 02:34:55;;;;;;;4.15;2.08;;;;;;;11.96;100.00;102085.88;4972117;28;20059;-86
2021/09/02 02:37:23;;;;;;;3.65;2.10;;;;;;;12.04;100.00;102092.78;4971021;28;20372;-86
2021/09/02 02:39:53;;;;;;;3.35;1.77;;;;;;;12.06;100.00;102083.25;4969673;28;20506;-85
2021/09/02 02:42:21;;;;;;;4.18;2.10;;;;;;;12.11;100.00;102084.41;4973563;28;20061;-86
2021/09/02 02:44:54;;;;;;;4.13;2.20;;;;;;;12.12;100.00;102080.59;4964635;28;20391;-85
2021/09/02 02:47:22;;;;;;;4.55;2.00;;;;;;;12.19;100.00;102073.03;4973038;28;20055;-87
2021/09/02 02:49:56;;;;;;;3.92;2.38;;;;;;;12.12;100.00;102072.41;4966217;28;20047;-86
2021/09/02 02:52:29;;;;;;;4.38;2.40;;;;;;;12.21;100.00;102077.16;4986967;28;20411;-86
2021/09/02 02:54:59;;;;;;;5.57;2.60;;;;;;;12.11;100.00;102079.78;4966700;28;20059;-86
2021/09/02 02:57:33;;;;;;;4.25;2.53;;;;;;;12.18;100.00;102083.13;4962068;28;20051;-86
2021/09/02 03:00:01;;;;;;;4.15;2.53;;;;;;;12.22;100.00;102075.25;4969523;28;20054;-85
2021/09/02 03:02:34;;;;;;;3.95;2.47;;;;;;;12.27;100.00;102082.69;4968316;28;20059;-84
2021/09/02 03:05:02;;;;;;;3.25;2.30;;;;;;;12.30;100.00;102076.69;4962846;28;20671;-85
2021/09/02 03:07:35;;;;;;;4.43;2.70;;;;;;;12.28;100.00;102082.41;4966550;28;20484;-85
2021/09/02 03:10:11;;;;;;;4.65;2.60;;;;;;;12.27;100.00;102083.50;4966733;28;20499;-85
2021/09/02 03:12:39;;;;;;;4.82;2.63;;;;;;;12.29;100.00;102075.88;4972711;28;20057;-85
2021/09/02 03:15:13;;;;;;;3.65;2.30;;;;;;;12.32;100.00;102080.81;4966633;28;20051;-86
2021/09/02 03:17:46;;;;;;;5.05;2.50;;;;;;;12.35;100.00;102087.69;4968169;28;20046;-86
2021/09/02 03:20:14;;;;;;;5.20;2.60;;;;;;;12.33;100.00;102071.56;4966483;28;20067;-84
2021/09/02 03:22:48;;;;;;;4.13;2.40;;;;;;;12.39;100.00;102089.63;4964466;28;20062;-85
2021/09/02 03:25:17;;;;;;;4.70;2.50;;;;;;;12.30;100.00;102084.88;4970191;28;20047;-84
2021/09/02 03:27:46;;;;;;;4.47;2.63;;;;;;;12.23;100.00;102083.16;4962694;28;20058;-86
2021/09/02 03:30:14;;;;;;;4.40;2.70;;;;;;;12.23;100.00;102079.63;4965448;28;20055;-86
2021/09/02 03:32:47;;;;;;;4.72;2.67;;;;;;;12.30;100.00;102074.78;4965660;28;20054;-85
2021/09/02 03:35:21;;;;;;;6.22;2.80;;;;;;;12.25;100.00;102056.44;4968357;28;20043;-86
2021/09/02 03:37:49;;;;;;;4.35;2.28;;;;;;;12.43;100.00;102079.03;4968512;28;20414;-85
2021/09/02 03:40:18;;;;;;;5.68;2.60;;;;;;;12.44;100.00;102074.38;4972119;28;20509;-85
2021/09/02 03:42:52;;;;;;;4.45;2.42;;;;;;;12.47;100.00;102077.44;4969785;28;20050;-86
2021/09/02 03:45:20;;;;;;;4.47;2.47;;;;;;;12.45;100.00;102086.94;4961570;28;20051;-85
2021/09/02 03:47:53;;;;;;;4.28;2.22;;;;;;;12.45;100.00;102089.69;4971896;28;20077;-84
2021/09/02 03:50:21;;;;;;;5.97;2.40;;;;;;;12.36;100.00;102083.84;4966346;28;20058;-85
2021/09/02 03:52:55;;;;;;;4.70;2.17;;;;;;;12.40;100.00;102074.06;4969463;28;20047;-84
2021/09/02 03:55:29;;;;;;;3.85;2.30;;;;;;;12.33;100.00;102079.75;4972758;28;20051;-85
2021/09/02 03:58:03;;;;;;;4.35;2.28;;;;;;;12.42;100.00;102071.91;4963832;28;20047;-86
2021/09/02 04:00:36;;;;;;;4.07;2.20;;;;;;;12.46;100.00;102078.50;4966824;28;20058;-86
2021/09/02 04:03:10;;;;;;;3.47;2.00;;;;;;;12.39;100.00;102081.44;4963051;28;20055;-85
2021/09/02 04:05:43;;;;;;;4.68;2.22;;;;;;;12.33;100.00;102082.47;4962226;28;20051;-85
2021/09/02 04:08:16;;;;;;;4.57;2.28;;;;;;;12.37;100.00;102083.59;4959031;28;20046;-85
2021/09/02 04:10:46;;;;;;;4.60;2.40;;;;;;;12.40;100.00;102088.53;4958841;28;20047;-84
2021/09/02 04:13:19;;;;;;;4.10;2.30;;;;;;;12.43;100.00;102084.47;4970344;28;20047;-85
2021/09/02 04:15:47;;;;;;;4.50;2.10;;;;;;;12.47;100.00;102082.03;4971169;28;20051;-85
2021/09/02 04:18:15;;;;;;;4.20;2.20;;;;;;;12.45;100.00;102086.94;4961540;28;20053;-86
2021/09/02 04:20:44;;;;;;;4.55;2.00;;;;;;;12.50;100.00;102087.00;4965606;28;20063;-84
2021/09/02 04:23:17;;;;;;;3.58;2.00;;;;;;;12.42;100.00;102091.81;4964736;28;20057;-85
2021/09/02 04:25:52;;;;;;;3.90;1.90;;;;;;;12.51;100.00;102089.47;4958418;28;20039;-85
2021/09/02 04:28:21;;;;;;;4.20;2.00;;;;;;;12.51;100.00;102092.22;4958834;28;20046;-85
2021/09/02 04:30:54;;;;;;;3.85;2.13;;;;;;;12.50;100.00;102092.47;4978506;28;20073;-85
2021/09/02 04:33:27;;;;;;;3.78;2.08;;;;;;;12.44;100.00;102086.09;4985249;28;20558;-84
2021/09/02 04:36:00;;;;;;;3.80;1.95;;;;;;;12.48;100.00;102081.78;4972282;28;20042;-84
2021/09/02 04:38:29;;;;;;;6.88;2.45;;;;;;;12.48;100.00;102087.25;4971714;28;20376;-85
2021/09/02 04:41:03;;;;;;;4.97;2.10;;;;;;;12.51;100.00;102085.91;4969326;28;20055;-85
2021/09/02 04:43:36;;;;;;;3.88;1.90;;;;;;;12.53;100.00;102089.22;4969845;28;20069;-85
2021/09/02 04:46:05;;;;;;;4.43;2.10;;;;;;;12.54;100.00;102077.19;4959214;28;20055;-85
2021/09/02 04:48:39;;;;;;;5.25;2.40;;;;;;;12.52;100.00;102091.09;4970878;28;20491;-85
2021/09/02 04:51:07;;;;;;;4.22;2.30;;;;;;;12.57;100.00;102079.44;4961474;28;20062;-84
2021/09/02 04:53:35;;;;;;;5.40;2.30;;;;;;;12.51;100.00;102091.38;4958603;28;20055;-85
2021/09/02 04:56:05;;;;;;;3.88;2.20;;;;;;;12.54;100.00;102080.75;4970769;28;20153;-85
2021/09/02 04:58:33;;;;;;;3.28;2.05;;;;;;;12.46;100.00;102078.50;4970086;28;20490;-85
2021/09/02 05:01:07;;;;;;;4.90;2.20;;;;;;;12.39;100.00;102075.16;4972197;28;20422;-85
2021/09/02 05:03:40;;;;;;;4.07;2.10;;;;;;;12.52;100.00;102090.28;4968157;28;20065;-85
2021/09/02 05:06:13;;;;;;;4.63;2.20;;;;;;;12.61;100.00;102090.63;4969093;28;20058;-85
2021/09/02 05:08:47;;;;;;;4.57;2.20;;;;;;;12.63;100.00;102108.41;4966801;28;20058;-86
2021/09/02 05:11:17;;;;;;;2.67;1.80;;;;;;;12.69;100.00;102099.19;4962887;28;20059;-86
2021/09/02 05:13:50;;;;;;;3.08;1.90;;;;;;;12.58;100.00;102094.69;4968684;28;20059;-86
2021/09/02 05:16:25;;;;;;;4.93;2.35;;;;;;;12.63;100.00;102108.41;4968711;28;20062;-85
2021/09/02 05:18:54;;;;;;;4.03;2.20;;;;;;;12.71;100.00;102096.22;4978711;28;20063;-86
2021/09/02 05:21:22;;;;;;;3.60;2.03;;;;;;;12.73;100.00;102102.22;4972289;28;20059;-86
2021/09/02 05:23:50;;;;;;;4.55;2.30;;;;;;;12.77;100.00;102108.81;4953208;28;20055;-86
2021/09/02 05:26:20;;;;;;;2.28;1.73;;;;;;;12.69;100.00;102090.16;4963136;28;20070;-85
2021/09/02 05:28:48;;;;;;;5.25;2.45;;;;;;;12.73;100.00;102094.88;4960433;28;20047;-86
2021/09/02 05:31:21;;;;;;;5.68;2.20;;;;;;;12.76;100.00;102105.28;4959514;28;20047;-85
2021/09/02 05:33:55;;;;;;;4.65;2.13;;;;;;;12.80;100.00;102102.84;4964921;28;20403;-85
2021/09/02 05:36:28;;;;;;;3.38;1.90;;;;;;;12.71;100.00;102090.75;4966417;28;20055;-86
2021/09/02 05:39:02;;;;;;;3.67;1.88;;;;;;;12.90;100.00;102097.47;4964142;28;20367;-85
2021/09/02 05:41:32;;;;;;;4.05;2.00;;;;;;;12.92;100.00;102099.94;4968637;28;20055;-86
2021/09/02 05:44:00;;;;;;;3.50;1.98;;;;;;;12.93;100.00;102099.66;4965233;28;20046;-86
2021/09/02 05:46:29;;;;;;;3.42;1.70;;;;;;;12.90;100.00;102097.47;4966819;28;20050;-86
2021/09/02 05:49:02;;;;;;;4.32;1.75;;;;;;;12.96;100.00;102097.50;4966469;28;20054;-85
2021/09/02 05:51:35;;;;;;;3.53;1.88;;;;;;;12.98;100.00;102103.53;4963934;28;20410;-86
2021/09/02 05:54:08;;;;;;;3.75;1.98;;;;;;;13.01;100.00;102101.09;4970991;28;20088;-86
2021/09/02 05:56:38;;;;;;;3.53;1.90;;;;;;;12.93;100.00;102093.38;4972003;28;20388;-86
2021/09/02 05:59:11;;;;;;;5.28;1.80;;;;;;;13.05;100.00;102102.22;4957420;28;20051;-86
2021/09/02 06:01:45;;;;;;;3.40;1.77;;;;;;;13.07;100.00;102108.25;4970933;28;20059;-86
2021/09/02 06:04:13;;;;;;;3.83;1.80;;;;;;;13.07;100.00;102110.16;4972168;28;20054;-86
2021/09/02 06:06:46;;;;;;;3.17;1.80;;;;;;;13.05;100.00;102104.97;4972312;28;20050;-84
2021/09/02 06:09:14;;;;;;;3.08;1.80;;;;;;;13.13;100.00;102111.03;4968291;28;20063;-87
2021/09/02 06:11:49;;;;;;;4.90;2.08;;;;;;;13.09;100.00;102111.56;4970151;28;20390;-85
2021/09/02 06:14:22;;;;;;;4.03;1.80;;;;;;;13.14;100.00;102108.03;4972817;28;20495;-85
2021/09/02 06:16:55;;;;;;;4.47;1.80;;;;;;;13.19;100.00;102113.53;4977246;28;20074;-86
2021/09/02 06:19:28;;;;;;;4.38;2.05;;;;;;;13.21;100.00;102116.81;4968233;28;20063;-85
2021/09/02 06:22:02;;;;;;;3.08;1.92;;;;;;;13.19;100.00;102113.53;4969586;28;20038;-85
2021/09/02 06:24:35;;;;;;;4.07;1.80;;;;;;;13.25;100.00;102115.22;4969110;28;20484;-85
2021/09/02 06:27:05;;;;;;;2.78;1.60;;;;;;;13.35;100.00;102116.38;4971230;28;20059;-86
2021/09/02 06:29:38;;;;;;;3.25;1.80;;;;;;;13.39;100.00;102115.59;4964784;28;20051;-86
2021/09/02 06:32:16;;;;;;;5.28;2.05;;;;;;;13.47;100.00;102121.69;4961449;28;20058;-86
2021/09/02 06:34:49;;;;;;;5.30;2.03;;;;;;;13.36;100.00;102118.06;4969471;28;20525;-86
2021/09/02 06:37:18;;;;;;;3.80;1.90;;;;;;;13.50;100.00;102124.69;4965875;28;20055;-87
2021/09/02 06:39:46;;;;;;;2.67;1.60;;;;;;;13.48;100.00;102121.41;4967398;28;20051;-86
2021/09/02 06:42:15;;;;;;;3.40;1.85;;;;;;;13.50;100.00;102126.63;4967924;28;20142;-85
2021/09/02 06:44:48;;;;;;;4.10;1.85;;;;;;;13.55;100.00;102132.94;4966736;28;20051;-86
2021/09/02 06:47:22;;;;;;;3.08;1.75;;;;;;;13.52;100.00;102129.91;4972619;28;20051;-87
2021/09/02 06:49:55;;;;;;;4.10;1.70;;;;;;;13.54;100.00;102138.69;4967679;28;20067;-86
2021/09/02 06:52:28;;;;;;;4.00;1.60;;;;;;;13.56;100.00;102134.59;4970118;28;20055;-86
2021/09/02 06:55:07;;;;;;;3.78;1.63;;;;;;;13.63;100.00;102139.84;4971208;28;20673;-87
2021/09/02 06:57:41;;;;;;;3.08;1.70;;;;;;;13.64;100.00;102130.53;4965194;28;20051;-86
2021/09/02 07:00:15;;;;;;;4.13;1.80;;;;;;;13.54;100.00;102134.03;4968363;28;20062;-86
2021/09/02 07:02:48;;;;;;;4.80;1.80;;;;;;;13.73;100.00;102139.06;4970179;28;20050;-87
2021/09/02 07:05:22;;;;;;;3.28;2.00;;;;;;;13.66;100.00;102150.25;4972253;28;20042;-82
2021/09/02 07:07:56;;;;;;;3.50;1.80;;;;;;;13.68;100.00;102145.31;4967354;28;20046;-84
2021/09/02 07:10:29;;;;;;;4.05;1.70;;;;;;;13.63;100.00;102139.84;4966489;28;20403;-83
2021/09/02 07:12:58;;;;;;;3.58;1.85;;;;;;;13.73;100.00;102142.63;4965427;28;20368;-83
2021/09/02 07:15:32;;;;;;;3.33;1.50;;;;;;;13.71;100.00;102153.03;4964060;28;20054;-83
2021/09/02 07:18:05;;;;;;;3.35;1.70;;;;;;;13.76;100.00;102139.34;4964545;28;20749;-83
2021/09/02 07:20:33;;;;;;;2.13;1.38;;;;;;;13.89;100.00;102159.13;4968096;28;20052;-84
2021/09/02 07:23:02;;;;;;;3.28;1.60;;;;;;;13.86;100.00;102160.47;4960859;28;20050;-83
2021/09/02 07:25:35;;;;;;;3.03;1.50;;;;;;;13.91;100.00;102156.94;4983667;28;20059;-82
2021/09/02 07:28:09;;;;;;;3.00;1.60;;;;;;;13.97;100.00;102158.59;4975873;28;20050;-83
2021/09/02 07:30:38;;;;;;;3.25;1.50;;;;;;;13.99;100.00;102161.06;4980710;28;20054;-83
2021/09/02 07:33:12;;;;;;;3.00;1.52;;;;;;;13.96;100.00;102162.41;4979639;28;20765;-83
2021/09/02 07:35:47;;;;;;;3.53;1.70;;;;;;;14.00;100.00;102163.53;4977928;28;20727;-84
2021/09/02 07:38:20;;;;;;;3.13;1.63;;;;;;;13.98;100.00;102162.19;4979856;28;20050;-83
2021/09/02 07:40:53;;;;;;;3.15;1.52;;;;;;;14.01;100.00;102165.19;4976015;28;20667;-83
2021/09/02 07:43:28;;;;;;;3.47;1.40;;;;;;;14.12;100.00;102166.06;4978373;28;20058;-84
2021/09/02 07:46:01;;;;;;;3.47;1.52;;;;;;;14.14;99.17;102169.38;4975772;28;20050;-84
2021/09/02 07:48:35;;;;;;;3.85;1.55;;;;;;;14.05;98.82;102171.78;4978933;28;20057;-83
2021/09/02 07:51:08;;;;;;;2.67;1.50;;;;;;;14.12;99.14;102179.75;4977920;28;20057;-84
2021/09/02 07:53:42;;;;;;;2.85;1.45;;;;;;;14.14;99.47;102188.53;4980306;28;20439;-83
2021/09/02 07:56:15;;;;;;;2.70;1.27;;;;;;;14.24;98.25;102182.28;4980725;28;21151;-83
2021/09/02 07:58:49;;;;;;;1.67;1.30;;;;;;;14.25;98.18;102182.00;4977705;28;20597;-83
2021/09/02 08:01:23;;;;;;;3.53;1.50;;;;;;;14.15;97.93;102189.34;4984567;28;20050;-85
2021/09/02 08:03:57;;;;;;;2.67;1.60;;;;;;;14.26;97.03;102182.81;4984035;28;20073;-87
2021/09/02 08:06:30;;;;;;;2.20;1.33;;;;;;;14.33;97.58;102188.88;4979947;28;20066;-86
2021/09/02 08:09:06;;;;;;;2.28;1.50;;;;;;;14.19;98.92;102174.03;4979397;28;20053;-88
2021/09/02 08:11:39;;;;;;;4.00;1.37;;;;;;;14.23;98.12;102189.66;4981912;28;20046;-89
2021/09/02 08:14:09;;;;;;;2.60;1.52;;;;;;;14.36;97.83;102182.88;4982895;28;20070;-87
2021/09/02 08:16:42;;;;;;;2.28;1.33;;;;;;;14.46;98.40;102179.34;4986149;28;20042;-85
2021/09/02 08:19:15;;;;;;;2.60;1.42;;;;;;;14.54;98.21;102187.03;4979800;28;21165;-86
2021/09/02 08:21:49;;;;;;;3.13;1.50;;;;;;;14.41;96.60;102174.66;4965383;28;20046;-87
2021/09/02 08:24:22;;;;;;;4.32;1.50;;;;;;;14.61;94.46;102176.63;4977792;28;20054;-84
2021/09/02 08:26:50;;;;;;;2.63;1.42;;;;;;;14.55;93.07;102172.22;4982850;28;20058;-86
2021/09/02 08:29:20;;;;;;;2.60;1.30;;;;;;;14.59;93.95;102170.59;4980577;28;20065;-85
2021/09/02 08:31:48;;;;;;;3.80;1.50;;;;;;;14.56;93.70;102165.66;4979522;28;20058;-86
2021/09/02 08:34:21;;;;;;;3.13;1.33;;;;;;;14.61;91.98;102170.31;4978834;28;20058;-85
2021/09/02 08:36:54;;;;;;;2.25;1.20;;;;;;;14.71;90.92;102159.41;4980141;28;20057;-85
2021/09/02 08:39:22;;;;;;;1.58;1.15;;;;;;;14.67;90.79;102173.94;4981757;28;20066;-85
2021/09/02 08:41:57;;;;;;;3.75;1.30;;;;;;;14.58;91.04;102168.13;4982605;28;20054;-86
2021/09/02 08:44:26;;;;;;;1.70;1.10;;;;;;;14.71;88.16;102166.84;4965180;28;20426;-86
2021/09/02 08:47:00;;;;;;;3.42;1.40;;;;;;;14.73;88.90;102178.31;4981366;28;20062;-86
2021/09/02 08:49:33;;;;;;;2.03;1.10;;;;;;;14.80;91.38;102187.09;4980503;28;20062;-86
2021/09/02 08:52:02;;;;;;;1.48;1.00;;;;;;;14.84;89.52;102179.19;4980436;28;20410;-87
2021/09/02 08:54:32;;;;;;;1.85;0.95;;;;;;;14.71;89.41;102145.72;4980871;28;20050;-85
2021/09/02 08:57:05;;;;;;;2.38;1.17;;;;;;;14.94;86.06;102176.44;4982478;28;20061;-85
2021/09/02 08:59:40;;;;;;;2.05;1.00;;;;;;;14.92;86.65;102176.72;4981723;28;20054;-84
2021/09/02 09:02:24;;;;;;;2.05;1.10;;;;;;;14.97;85.23;102170.44;4981107;28;20058;-86
2021/09/02 09:05:04;;;;;;;1.45;1.00;;;;;;;15.04;84.89;102168.22;4979698;28;20050;-86
2021/09/02 09:07:39;;;;;;;2.28;1.20;;;;;;;15.20;86.75;102174.53;4981659;28;20054;-85
2021/09/02 09:10:16;;;;;;;1.45;0.90;;;;;;;15.14;84.45;102170.97;4981091;28;20061;-85
2021/09/02 09:12:53;;;;;;;1.10;1.00;;;;;;;15.08;84.84;102166.59;4982411;28;20057;-86
2021/09/02 09:15:25;;;;;;;1.55;0.90;;;;;;;15.00;85.40;102177.25;4985503;28;20691;-86
2021/09/02 09:17:55;;;;;;;1.90;1.10;;;;;;;15.18;84.08;102176.72;4981672;28;20066;-85
2021/09/02 09:20:29;;;;;;;1.70;1.10;;;;;;;15.13;84.03;102172.09;4979485;28;20054;-86
2021/09/02 09:23:02;;;;;;;2.95;1.20;;;;;;;15.27;85.83;102177.00;4967142;28;20065;-85
2021/09/02 09:25:35;;;;;;;1.50;0.88;;;;;;;15.37;83.81;102176.16;4984621;28;20054;-85
2021/09/02 09:28:09;;;;;;;1.23;0.93;;;;;;;14.78;85.61;102178.34;4984654;28;21414;-86
2021/09/02 09:30:39;;;;;;;2.42;1.20;;;;;;;14.94;85.44;102177.28;4984827;28;20708;-85
2021/09/02 09:33:17;;;;;;;2.83;1.10;;;;;;;14.86;87.15;102193.41;4983487;28;20066;-85
2021/09/02 09:35:56;;;;;;;2.55;1.20;;;;;;;14.79;86.82;102199.19;4984674;28;20062;-85
2021/09/02 09:38:29;;;;;;;2.53;1.30;;;;;;;14.76;87.15;102200.53;4988981;28;20045;-85
2021/09/02 09:41:06;;;;;;;1.35;1.00;;;;;;;14.86;85.57;102197.00;4983918;28;20050;-85
2021/09/02 09:43:39;;;;;;;2.17;1.08;;;;;;;14.72;87.22;102199.44;4984429;28;20483;-86
2021/09/02 09:46:14;;;;;;;2.08;1.17;;;;;;;14.61;87.42;102195.81;4982829;28;20514;-86
2021/09/02 09:48:42;;;;;;;2.53;1.20;;;;;;;14.66;88.93;102202.44;4983004;28;20057;-85
2021/09/02 09:51:17;;;;;;;1.75;1.00;;;;;;;14.65;87.97;102187.09;4982934;28;20063;-84
2021/09/02 09:53:52;;;;;;;2.15;1.20;;;;;;;14.84;85.47;102190.13;4982378;28;20955;-86
2021/09/02 09:56:26;;;;;;;1.70;1.10;;;;;;;14.75;87.79;102212.59;4986613;28;20049;-85
2021/09/02 09:59:02;;;;;;;2.70;1.20;;;;;;;14.76;90.06;102203.28;4983809;28;20054;-85
2021/09/02 10:01:33;;;;;;;1.80;0.95;;;;;;;14.79;87.32;102221.91;4983558;28;20692;-86
2021/09/02 10:04:01;;;;;;;2.70;1.20;;;;;;;14.63;87.86;102201.88;4985637;28;20058;-85
2021/09/02 10:06:29;;;;;;;2.65;1.23;;;;;;;14.82;86.44;102209.59;4983405;28;20414;-85
2021/09/02 10:09:05;;;;;;;2.45;1.20;;;;;;;14.95;86.54;102203.56;4982281;28;20058;-85
2021/09/02 10:11:38;;;;;;;2.30;1.10;;;;;;;14.88;86.98;102208.50;4981383;28;20065;-85
2021/09/02 10:14:12;;;;;;;2.08;1.00;;;;;;;14.92;86.93;102212.34;4985672;28;20069;-86
2021/09/02 10:16:46;;;;;;;1.88;1.00;;;;;;;14.99;86.98;102209.34;4983597;28;20601;-86
2021/09/02 10:19:15;;;;;;;1.60;0.90;;;;;;;14.98;83.69;102176.72;4982076;28;20054;-85
2021/09/02 10:21:43;;;;;;;1.50;1.13;;;;;;;14.91;85.69;102220.84;4964828;28;20046;-85
2021/09/02 10:24:36;;;;;;;1.52;1.10;;;;;;;14.98;86.20;102210.44;4982426;28;20069;-85
2021/09/02 10:27:37;;;;;;;1.55;1.10;;;;;;;15.03;86.71;102218.66;4985331;28;20061;-84
2021/09/02 10:30:45;;;;;;;1.80;1.15;;;;;;;14.91;87.73;102212.63;4982487;28;20042;-85
2021/09/02 10:33:42;;;;;;;1.77;1.00;;;;;;;15.04;88.93;102212.09;4981773;28;20077;-85
2021/09/02 10:36:42;;;;;;;2.75;1.30;;;;;;;15.11;88.74;102226.34;4980032;28;20069;-84
2021/09/02 10:39:11;;;;;;;1.30;0.95;;;;;;;15.23;88.52;102222.53;4988096;28;20046;-86
2021/09/02 10:41:47;;;;;;;1.88;0.90;;;;;;;15.20;85.72;102225.81;4980268;28;20054;-85
2021/09/02 10:44:43;;;;;;;1.58;0.95;;;;;;;15.34;84.73;102226.09;4980664;28;20050;-85
2021/09/02 10:47:18;;;;;;;2.72;1.10;;;;;;;15.33;84.64;102230.75;4981649;28;20058;-85
2021/09/02 10:50:20;;;;;;;1.88;1.10;;;;;;;15.47;85.25;102215.38;4981294;28;20875;-85
2021/09/02 10:52:53;;;;;;;2.53;1.10;;;;;;;15.49;83.93;102209.63;4978179;28;20085;-83
2021/09/02 10:55:29;;;;;;;2.95;1.17;;;;;;;15.18;84.75;102187.69;4979742;28;20871;-85
2021/09/02 10:58:04;;;;;;;1.90;1.05;;;;;;;15.28;84.76;102214.28;4981510;28;20061;-84
2021/09/02 11:00:39;;;;;;;1.48;1.00;;;;;;;15.33;85.82;102207.97;4978657;28;20058;-84
2021/09/02 11:03:14;;;;;;;1.08;0.80;;;;;;;15.36;85.56;102212.94;4978455;28;20393;-85
2021/09/02 11:05:49;;;;;;;1.20;0.82;;;;;;;15.28;86.15;102215.09;4979724;28;20083;-84
2021/09/02 11:08:32;;;;;;;2.50;1.00;;;;;;;15.53;85.60;102216.19;4980058;28;20525;-83
2021/09/02 11:11:09;;;;;;;2.45;1.00;;;;;;;15.43;86.66;102208.00;4978914;28;20062;-83
2021/09/02 11:13:45;;;;;;;2.70;1.10;;;;;;;15.39;84.59;102215.94;4977804;28;20062;-83
2021/09/02 11:16:14;;;;;;;1.27;1.00;;;;;;;15.22;84.78;102213.47;4977098;28;20748;-83
2021/09/02 11:18:50;;;;;;;2.13;1.00;;;;;;;15.19;84.66;102213.19;4976510;28;20066;-83
2021/09/02 11:21:27;;;;;;;2.85;1.45;;;;;;;15.20;86.30;102223.06;4958843;28;20058;-83
2021/09/02 11:24:04;;;;;;;1.67;1.13;;;;;;;15.35;85.81;102225.81;4980246;28;20142;-83
2021/09/02 11:26:39;;;;;;;;;;;;;;;15.54;84.89;102234.31;4983728;28;20058;-83
2021/09/02 11:29:08;;;;;;;1.77;1.05;;;;;;;15.54;82.93;102223.34;4979620;28;19921;-83
2021/09/02 11:31:42;;;;;;;1.63;0.95;;;;;;;15.57;80.93;102221.97;4978204;28;20054;-84
2021/09/02 11:34:41;;;;;;;1.75;1.02;;;;;;;15.66;81.33;102217.59;4978024;28;20062;-83
2021/09/02 11:37:16;;;;;;;1.45;0.90;;;;;;;15.71;84.97;102214.81;4979570;28;20038;-83
2021/09/02 11:39:50;;;;;;;2.20;1.00;;;;;;;15.96;80.63;102216.72;4978824;28;20495;-85
2021/09/02 11:42:24;;;;;;;1.38;0.90;;;;;;;16.04;81.96;102214.50;4979092;28;20057;-85
2021/09/02 11:45:04;;;;;;;1.17;0.80;;;;;;;16.04;79.12;102209.81;4980517;28;20085;-85